Weather at Brewster Field

Public forecast

Using degrees Fahrenheit for public forecast. Weather courtesy of forecast.io.

Current aviation weather report (METAR) for Brewster Field

Retrieved 2021/07/30 00:55 UTC (7 minutes ago):

KHDE 300055Z AUTO 06015KT 10SM CLR 29/26 A3008 RMK AO2 T02890260

Closest aviation forecast (TAF) to Brewster Field

Closest forecast is Kearney Regional Airport, 22.3 nm (41.3 km) NE. Retrieved 2021-07-30 00:42 UTC (20 minutes ago):

TAF KEAR 292339Z 3000/3024 06011KT P6SM VCTS FEW070CB SCT250 FM300700 08007KT P6SM SCT070 BKN250 FM300900 09007KT 6SM HZ BR SCT070 BKN250 FM301400 12006KT P6SM FEW060 SCT250 FM301800 14009KT 6SM HZ FEW060 FEW250 FM302200 14011KT P6SM SCT250